Time;durP1;ratioP1;P1;durP2;ratioP2;P2;SDS_P1;SDS_P2;PMS_P1;PMS_P2;Temp;Humidity;BMP_temperature;BMP_pressure;BME280_temperature;BME280_humidity;BME280_pressure;Samples;Min_cycle;Max_cycle;Signal;HPM_P1;HPM_P2
2021/10/02 00:36:48;;;;;;;2.50;2.40;;;15.20;74.90;;;;;;5033649;28;20036;-90
2021/10/02 00:44:43;;;;;;;2.50;2.40;;;15.20;74.90;;;;;;5033050;28;20057;-90
2021/10/02 00:47:07;;;;;;;9.07;2.50;;;15.20;75.30;;;;;;5029400;28;20030;-90
2021/10/02 00:49:38;;;;;;;3.00;2.80;;;15.10;74.90;;;;;;5014889;28;20389;-90
2021/10/02 00:52:06;;;;;;;2.30;2.20;;;15.10;75.00;;;;;;5031769;28;20021;-90
2021/10/02 00:54:32;;;;;;;2.40;2.30;;;15.10;75.00;;;;;;5030755;28;20032;-89
2021/10/02 00:56:58;;;;;;;2.58;2.47;;;15.10;75.10;;;;;;5032237;28;20032;-90
2021/10/02 00:59:29;;;;;;;2.72;2.63;;;15.10;75.20;;;;;;5031802;28;20034;-90
2021/10/02 01:01:57;;;;;;;3.00;2.80;;;15.00;75.10;;;;;;5031096;28;20396;-90
2021/10/02 01:04:51;;;;;;;2.60;2.50;;;15.00;75.10;;;;;;5030870;28;20041;-90
2021/10/02 01:07:41;;;;;;;2.40;2.30;;;15.00;75.20;;;;;;5032515;28;20526;-90
2021/10/02 01:10:26;;;;;;;2.60;2.50;;;15.00;75.20;;;;;;5030489;28;20029;-90
2021/10/02 01:12:54;;;;;;;2.50;2.40;;;15.00;75.20;;;;;;5029914;28;20048;-91
2021/10/02 01:15:49;;;;;;;2.38;2.28;;;14.90;75.10;;;;;;5028927;28;20033;-90
2021/10/02 01:18:18;;;;;;;2.40;2.30;;;14.90;75.30;;;;;;5027771;28;20025;-90
2021/10/02 01:21:01;;;;;;;2.40;2.30;;;14.90;75.30;;;;;;4998371;28;20049;-90
2021/10/02 01:23:52;;;;;;;2.42;2.33;;;14.80;75.30;;;;;;5012707;28;20049;-91
2021/10/02 01:26:55;;;;;;;2.40;2.30;;;14.80;75.30;;;;;;5028323;28;20036;-90
2021/10/02 01:29:21;;;;;;;8.88;2.78;;;14.80;75.40;;;;;;5031876;28;20040;-90
2021/10/02 01:32:14;;;;;;;2.70;2.50;;;14.70;75.30;;;;;;5013673;28;20034;-90
2021/10/02 01:35:26;;;;;;;2.40;2.30;;;14.70;75.50;;;;;;5028825;28;20472;-90
2021/10/02 01:48:06;;;;;;;2.45;2.35;;;14.60;75.40;;;;;;5031997;28;20040;-90
2021/10/02 01:50:35;;;;;;;2.70;2.60;;;14.60;75.40;;;;;;5013766;28;20472;-89
2021/10/02 01:53:03;;;;;;;2.42;2.33;;;14.60;75.40;;;;;;5022343;28;20038;-90
2021/10/02 01:55:29;;;;;;;2.50;2.40;;;14.60;75.40;;;;;;5030387;28;20026;-90
2021/10/02 01:58:01;;;;;;;2.40;2.30;;;14.60;75.30;;;;;;4996975;28;20224;-90
2021/10/02 02:00:28;;;;;;;2.65;2.55;;;14.60;75.30;;;;;;5012463;28;20399;-90
2021/10/02 02:02:55;;;;;;;2.70;2.60;;;14.60;76.20;;;;;;5027060;28;20049;-90
2021/10/02 02:05:23;;;;;;;2.50;2.40;;;14.60;75.40;;;;;;5023231;28;20048;-91
2021/10/02 02:07:52;;;;;;;3.00;2.78;;;14.60;75.40;;;;;;5022781;28;20783;-90
2021/10/02 02:10:19;;;;;;;2.75;2.60;;;14.60;76.20;;;;;;5011150;28;20034;-89
2021/10/02 02:12:45;;;;;;;2.50;2.40;;;14.60;75.40;;;;;;5026629;28;20395;-90
2021/10/02 02:15:11;;;;;;;2.50;2.40;;;14.60;75.40;;;;;;5011850;28;20033;-91
2021/10/02 02:17:50;;;;;;;2.55;2.45;;;14.60;75.40;;;;;;5009079;28;20041;-90
2021/10/02 02:20:21;;;;;;;2.60;2.50;;;14.60;75.30;;;;;;5028536;28;20033;-90
2021/10/02 02:22:48;;;;;;;2.50;2.40;;;14.60;75.40;;;;;;5028208;28;20037;-90
2021/10/02 02:25:14;;;;;;;2.60;2.50;;;14.60;75.40;;;;;;5026512;28;20025;-89
2021/10/02 02:27:40;;;;;;;3.00;2.85;;;14.60;75.30;;;;;;5029105;28;20025;-90
2021/10/02 02:30:06;;;;;;;3.15;2.55;;;14.60;75.30;;;;;;5028785;28;20033;-91
2021/10/02 02:32:33;;;;;;;2.75;2.65;;;14.60;75.40;;;;;;5029164;28;20040;-91
2021/10/02 02:35:00;;;;;;;2.97;2.78;;;14.60;75.50;;;;;;5028554;28;20045;-90
2021/10/02 02:37:26;;;;;;;2.60;2.50;;;14.50;75.50;;;;;;5030469;28;20029;-90
2021/10/02 02:39:52;;;;;;;2.67;2.58;;;14.50;75.50;;;;;;5027142;28;20399;-90
2021/10/02 02:42:18;;;;;;;2.70;2.50;;;14.50;75.50;;;;;;5031263;28;20036;-90
2021/10/02 02:44:45;;;;;;;2.40;2.30;;;14.40;75.50;;;;;;5026472;28;20052;-89
2021/10/02 02:47:14;;;;;;;2.40;2.30;;;14.40;75.60;;;;;;5025195;28;20034;-90
2021/10/02 02:49:49;;;;;;;2.63;2.53;;;14.40;75.60;;;;;;5013399;28;20029;-91
2021/10/02 02:52:21;;;;;;;2.35;2.25;;;14.40;75.70;;;;;;5029572;28;20022;-90
2021/10/02 02:54:49;;;;;;;2.45;2.35;;;14.40;75.80;;;;;;5014384;28;20044;-90
2021/10/02 02:57:17;;;;;;;2.65;2.55;;;14.30;75.70;;;;;;5029552;28;20030;-90
2021/10/02 02:59:50;;;;;;;2.53;2.42;;;14.30;75.70;;;;;;5010007;28;20060;-90
2021/10/02 03:02:18;;;;;;;2.58;2.47;;;14.30;75.70;;;;;;5032150;28;20045;-90
2021/10/02 03:04:45;;;;;;;2.50;2.40;;;14.30;75.70;;;;;;5038395;28;20050;-91
2021/10/02 03:07:11;;;;;;;2.40;2.30;;;14.30;75.70;;;;;;5032856;28;20029;-91
2021/10/02 03:09:42;;;;;;;2.53;2.42;;;14.30;75.70;;;;;;5014326;28;20033;-91
2021/10/02 03:12:08;;;;;;;2.80;2.60;;;14.30;75.70;;;;;;5032307;28;20391;-89
2021/10/02 03:14:36;;;;;;;3.17;2.95;;;14.30;75.60;;;;;;5032933;28;20060;-89
2021/10/02 03:17:02;;;;;;;3.28;3.08;;;14.30;75.70;;;;;;5015800;28;20037;-90
2021/10/02 03:19:28;;;;;;;2.40;2.30;;;14.30;75.70;;;;;;5035477;28;20029;-91
2021/10/02 03:21:54;;;;;;;2.70;2.60;;;14.30;75.70;;;;;;5016099;28;20045;-90
2021/10/02 03:24:21;;;;;;;2.40;2.30;;;14.30;75.70;;;;;;5016655;28;20045;-89
2021/10/02 03:26:47;;;;;;;2.42;2.33;;;14.30;75.70;;;;;;5015350;28;20038;-90
2021/10/02 03:29:13;;;;;;;2.92;2.72;;;14.30;75.70;;;;;;5016320;28;20049;-90
2021/10/02 03:31:40;;;;;;;2.70;2.60;;;14.20;75.60;;;;;;5032746;28;20041;-90
2021/10/02 03:34:06;;;;;;;2.50;2.40;;;14.20;75.70;;;;;;5028371;28;20033;-90
2021/10/02 03:36:32;;;;;;;3.65;2.88;;;14.20;75.70;;;;;;5032247;28;20389;-90
2021/10/02 03:38:58;;;;;;;2.65;2.55;;;14.20;75.70;;;;;;5032446;28;20407;-90
2021/10/02 03:41:24;;;;;;;2.30;2.20;;;14.20;75.70;;;;;;5032296;28;20025;-89
2021/10/02 03:43:51;;;;;;;2.45;2.35;;;14.20;75.70;;;;;;5033345;28;20419;-90
2021/10/02 03:46:17;;;;;;;2.40;2.30;;;14.20;75.70;;;;;;5033772;28;20037;-90
2021/10/02 03:48:43;;;;;;;2.80;2.70;;;14.20;75.80;;;;;;5032572;28;20492;-88
2021/10/02 03:51:09;;;;;;;2.30;2.20;;;14.20;75.80;;;;;;5034332;28;20051;-90
2021/10/02 03:53:35;;;;;;;2.42;2.33;;;14.20;75.70;;;;;;5032697;28;20029;-90
2021/10/02 03:56:01;;;;;;;2.30;2.20;;;14.20;75.80;;;;;;5032768;28;20053;-90
2021/10/02 03:58:28;;;;;;;2.45;2.35;;;14.20;75.80;;;;;;5033569;28;20039;-90
2021/10/02 04:00:54;;;;;;;2.30;2.20;;;14.20;75.70;;;;;;5031446;28;20376;-91
2021/10/02 04:03:20;;;;;;;2.40;2.30;;;14.20;75.70;;;;;;5025829;28;20389;-90
2021/10/02 04:05:46;;;;;;;2.40;2.30;;;14.20;75.70;;;;;;5033783;28;20048;-90
2021/10/02 04:08:12;;;;;;;2.45;2.35;;;14.20;75.70;;;;;;5032602;28;20379;-90
2021/10/02 04:10:38;;;;;;;2.55;2.45;;;14.30;76.60;;;;;;5033390;28;20041;-90
2021/10/02 04:13:05;;;;;;;2.50;2.40;;;14.30;75.80;;;;;;5032764;28;20036;-90
2021/10/02 04:15:32;;;;;;;2.30;2.20;;;14.30;75.80;;;;;;5032854;28;20904;-90
2021/10/02 04:17:58;;;;;;;2.28;2.17;;;14.20;75.70;;;;;;5033317;28;20037;-90
2021/10/02 04:20:24;;;;;;;3.38;2.97;;;14.30;76.60;;;;;;5032792;28;20048;-90
2021/10/02 04:22:50;;;;;;;2.40;2.30;;;14.30;75.70;;;;;;5030798;28;20025;-90
2021/10/02 04:25:16;;;;;;;2.35;2.25;;;14.30;75.70;;;;;;5032149;28;20042;-91
2021/10/02 04:27:42;;;;;;;2.33;2.22;;;14.30;75.70;;;;;;5014297;28;20052;-90
2021/10/02 04:30:09;;;;;;;2.63;2.53;;;14.30;75.80;;;;;;5032629;28;20483;-90
2021/10/02 04:32:35;;;;;;;2.50;2.40;;;14.30;75.80;;;;;;5015163;28;20037;-90
2021/10/02 04:35:01;;;;;;;3.08;2.88;;;14.30;75.80;;;;;;5030616;28;20387;-91
2021/10/02 04:37:27;;;;;;;2.72;2.63;;;14.30;75.80;;;;;;5031453;28;20029;-90
2021/10/02 04:39:53;;;;;;;2.55;2.45;;;14.30;75.80;;;;;;5032731;28;20389;-90
2021/10/02 04:42:19;;;;;;;2.50;2.40;;;14.30;75.80;;;;;;5033148;28;20033;-90
2021/10/02 04:44:45;;;;;;;2.70;2.60;;;14.30;75.90;;;;;;5032888;28;20044;-90
2021/10/02 04:47:12;;;;;;;3.60;2.72;;;14.30;75.90;;;;;;5031849;28;20030;-90
2021/10/02 04:49:38;;;;;;;2.60;2.40;;;14.20;76.00;;;;;;5032104;28;20412;-90
2021/10/02 04:52:05;;;;;;;2.50;2.40;;;14.20;76.10;;;;;;5028265;28;20029;-89
2021/10/02 04:54:31;;;;;;;2.30;2.20;;;14.10;76.20;;;;;;5024403;28;20049;-89
2021/10/02 04:56:57;;;;;;;2.33;2.20;;;14.10;76.20;;;;;;5032843;28;20036;-90
2021/10/02 04:59:23;;;;;;;2.30;2.20;;;14.20;76.20;;;;;;5030123;28;20033;-87
2021/10/02 05:01:49;;;;;;;2.25;2.15;;;14.20;76.20;;;;;;5030493;28;20037;-88
2021/10/02 05:04:15;;;;;;;2.28;2.17;;;14.20;76.10;;;;;;5032190;28;20056;-90
2021/10/02 05:06:41;;;;;;;2.22;2.13;;;14.20;76.10;;;;;;5032394;28;20025;-89
2021/10/02 05:09:07;;;;;;;2.25;2.15;;;14.30;76.10;;;;;;5030445;28;20044;-88
2021/10/02 05:11:33;;;;;;;2.47;2.38;;;14.30;76.10;;;;;;5030969;28;20032;-86
2021/10/02 05:14:00;;;;;;;2.33;2.22;;;14.30;76.10;;;;;;5031759;28;20396;-86
2021/10/02 05:16:26;;;;;;;2.42;2.33;;;14.30;76.00;;;;;;5031671;28;20045;-86
2021/10/02 05:18:52;;;;;;;2.75;2.65;;;14.30;76.00;;;;;;5018497;28;20030;-90
2021/10/02 05:21:18;;;;;;;2.33;2.22;;;14.40;76.10;;;;;;5031466;28;20041;-90
2021/10/02 05:23:44;;;;;;;2.30;2.20;;;14.40;76.00;;;;;;5032157;28;20042;-91
2021/10/02 05:26:10;;;;;;;2.33;2.22;;;14.40;76.00;;;;;;5031386;28;20041;-91
2021/10/02 05:28:36;;;;;;;3.33;2.05;;;14.40;76.00;;;;;;5032101;28;20477;-90
2021/10/02 05:31:03;;;;;;;2.15;2.05;;;14.50;76.00;;;;;;5046240;28;20029;-91
2021/10/02 05:33:29;;;;;;;2.22;2.13;;;14.50;76.00;;;;;;5030541;28;20472;-91
2021/10/02 05:35:55;;;;;;;2.25;2.15;;;14.50;75.90;;;;;;5031963;28;20044;-91
2021/10/02 05:38:21;;;;;;;2.25;2.15;;;14.60;75.90;;;;;;5028054;28;20029;-91
2021/10/02 05:40:50;;;;;;;2.45;2.35;;;14.60;75.90;;;;;;5030080;28;20046;-90
2021/10/02 05:43:16;;;;;;;2.22;2.13;;;14.70;76.00;;;;;;5031777;28;20487;-91
2021/10/02 05:45:42;;;;;;;2.35;2.25;;;14.70;76.00;;;;;;5029782;28;20740;-91
2021/10/02 05:48:08;;;;;;;2.20;2.10;;;14.70;76.00;;;;;;5017821;28;20038;-90
2021/10/02 05:50:34;;;;;;;2.58;2.47;;;14.70;76.00;;;;;;5030242;28;20034;-90
2021/10/02 05:53:01;;;;;;;2.40;2.30;;;14.70;76.00;;;;;;4997315;28;20056;-91
2021/10/02 05:55:27;;;;;;;2.47;2.38;;;14.80;76.10;;;;;;5031201;28;20037;-91
2021/10/02 05:57:53;;;;;;;2.85;2.63;;;14.70;76.10;;;;;;5030349;28;20048;-91
2021/10/02 06:00:19;;;;;;;2.35;2.25;;;14.80;76.10;;;;;;5031150;28;20052;-91
2021/10/02 06:02:45;;;;;;;2.33;2.22;;;14.80;76.10;;;;;;5013546;28;20037;-91
2021/10/02 06:05:11;;;;;;;2.50;2.40;;;14.80;76.10;;;;;;5030194;28;20112;-90
2021/10/02 06:07:37;;;;;;;2.28;2.17;;;14.90;76.20;;;;;;5029724;28;20025;-91
2021/10/02 06:10:04;;;;;;;2.35;2.25;;;14.80;76.10;;;;;;5029944;28;20339;-89
2021/10/02 06:12:30;;;;;;;2.20;2.10;;;14.80;76.10;;;;;;5031052;28;20033;-91
2021/10/02 06:14:56;;;;;;;2.30;2.20;;;14.90;76.20;;;;;;5030397;28;20044;-91
2021/10/02 06:17:22;;;;;;;2.40;2.30;;;14.90;76.20;;;;;;5028845;28;20545;-84
2021/10/02 06:19:48;;;;;;;2.45;2.35;;;14.90;76.20;;;;;;5013200;28;20033;-90
2021/10/02 06:22:14;;;;;;;3.95;3.75;;;15.00;76.30;;;;;;5031050;28;20017;-91
2021/10/02 06:24:40;;;;;;;3.35;3.15;;;15.00;76.30;;;;;;5030674;28;20045;-90
2021/10/02 06:27:06;;;;;;;3.28;3.17;;;15.00;76.30;;;;;;5031014;28;20045;-91
2021/10/02 06:29:33;;;;;;;3.33;3.13;;;15.00;76.30;;;;;;5010929;28;20038;-90
2021/10/02 06:31:59;;;;;;;3.22;3.13;;;15.00;76.30;;;;;;5028624;28;20040;-91
2021/10/02 06:34:26;;;;;;;8.63;4.05;;;15.00;76.30;;;;;;5031845;28;20033;-83
2021/10/02 06:36:52;;;;;;;3.50;3.30;;;15.10;76.40;;;;;;5030390;28;20029;-90
2021/10/02 06:39:18;;;;;;;4.45;4.22;;;15.10;76.40;;;;;;5031184;28;20026;-90
2021/10/02 06:41:44;;;;;;;3.58;3.38;;;15.10;76.40;;;;;;5029775;28;20034;-87
2021/10/02 06:44:11;;;;;;;3.80;3.53;;;15.10;76.40;;;;;;5031289;28;20046;-89
2021/10/02 06:46:37;;;;;;;3.53;3.33;;;15.20;76.60;;;;;;5030484;28;20483;-89
2021/10/02 06:49:03;;;;;;;3.50;3.38;;;15.20;76.40;;;;;;5034697;28;20025;-87
2021/10/02 06:51:29;;;;;;;3.70;3.50;;;15.20;76.40;;;;;;5049722;28;20522;-88
2021/10/02 06:53:55;;;;;;;3.70;3.53;;;15.20;76.40;;;;;;5035377;28;20025;-88
2021/10/02 06:56:21;;;;;;;3.75;3.47;;;15.30;76.40;;;;;;5065754;28;20029;-86
2021/10/02 06:58:47;;;;;;;4.20;4.00;;;15.30;76.40;;;;;;5049524;28;20392;-88
2021/10/02 07:01:13;;;;;;;4.05;3.85;;;15.40;76.40;;;;;;5034420;28;20042;-87
2021/10/02 07:03:39;;;;;;;3.75;3.55;;;15.40;76.50;;;;;;5034365;28;20392;-89
2021/10/02 07:06:05;;;;;;;4.15;3.95;;;15.40;76.50;;;;;;5031526;28;20041;-89
2021/10/02 07:08:32;;;;;;;3.75;3.55;;;15.40;76.50;;;;;;5050066;28;20369;-88
2021/10/02 07:10:58;;;;;;;4.25;3.95;;;15.50;76.50;;;;;;5034811;28;20048;-87
2021/10/02 07:13:24;;;;;;;3.20;3.10;;;15.50;76.50;;;;;;5034006;28;20396;-86
2021/10/02 07:15:50;;;;;;;4.90;4.50;;;15.50;76.50;;;;;;5034044;28;20034;-88
2021/10/02 07:18:17;;;;;;;3.78;3.58;;;15.50;76.50;;;;;;5042949;28;20028;-88
2021/10/02 07:20:43;;;;;;;3.85;3.65;;;15.60;76.60;;;;;;5049292;28;20103;-89
2021/10/02 07:23:09;;;;;;;3.67;3.50;;;15.60;76.50;;;;;;5034457;28;20037;-88
2021/10/02 07:25:35;;;;;;;3.75;3.55;;;15.60;76.50;;;;;;5036335;28;20049;-89
2021/10/02 07:28:02;;;;;;;4.63;4.35;;;15.60;76.60;;;;;;5065653;28;20530;-88
2021/10/02 07:30:28;;;;;;;3.75;3.55;;;15.70;76.60;;;;;;5033814;28;20033;-89
2021/10/02 07:32:54;;;;;;;3.83;3.63;;;15.70;76.60;;;;;;5033230;28;20369;-89
2021/10/02 07:35:20;;;;;;;3.42;3.30;;;15.70;76.60;;;;;;5033870;28;20412;-87
2021/10/02 07:37:46;;;;;;;3.70;3.50;;;15.80;76.60;;;;;;5065738;28;20044;-85
2021/10/02 07:40:13;;;;;;;3.88;3.55;;;15.80;76.50;;;;;;5037209;28;20387;-88
2021/10/02 07:42:39;;;;;;;3.65;3.45;;;15.90;76.50;;;;;;5014926;28;20052;-87
2021/10/02 07:45:08;;;;;;;3.63;3.42;;;15.90;76.40;;;;;;5016507;28;20046;-87
2021/10/02 07:47:40;;;;;;;4.25;4.05;;;16.00;76.40;;;;;;5032401;28;20033;-88
2021/10/02 07:50:11;;;;;;;4.10;3.80;;;16.00;76.40;;;;;;5065112;28;20056;-88
2021/10/02 07:52:38;;;;;;;7.20;6.90;;;16.00;77.20;;;;;;5024109;28;20387;-86
2021/10/02 07:55:08;;;;;;;4.05;3.85;;;16.10;76.40;;;;;;5065400;28;20403;-89
2021/10/02 07:57:36;;;;;;;3.78;3.58;;;16.10;76.40;;;;;;5047275;28;20026;-87
2021/10/02 08:00:05;;;;;;;7.22;4.03;;;16.10;76.40;;;;;;5033999;28;20053;-81
2021/10/02 08:02:31;;;;;;;3.92;3.63;;;16.20;76.40;;;;;;5048342;28;20053;-88
2021/10/02 08:04:58;;;;;;;4.22;4.03;;;16.20;76.40;;;;;;5032495;28;20048;-88
2021/10/02 08:07:24;;;;;;;9.70;4.15;;;16.30;76.50;;;;;;5044146;28;20021;-86
2021/10/02 08:09:50;;;;;;;4.55;4.35;;;16.40;76.30;;;;;;5056002;28;20033;-88
2021/10/02 08:12:16;;;;;;;4.82;4.53;;;16.60;76.30;;;;;;5031389;28;20045;-87
2021/10/02 08:14:43;;;;;;;4.18;3.88;;;16.80;75.90;;;;;;5031042;28;20399;-88
2021/10/02 08:17:09;;;;;;;4.45;4.22;;;17.10;75.40;;;;;;5029556;28;20040;-87
2021/10/02 08:19:35;;;;;;;3.42;3.33;;;17.40;75.00;;;;;;5041549;28;20029;-85
2021/10/02 08:22:03;;;;;;;4.30;4.00;;;17.60;74.70;;;;;;5010365;28;20502;-85
2021/10/02 08:24:31;;;;;;;5.05;4.85;;;17.70;74.60;;;;;;5060881;28;20081;-89
2021/10/02 08:26:57;;;;;;;4.88;4.68;;;17.70;74.50;;;;;;5033208;28;20046;-88
2021/10/02 08:29:23;;;;;;;5.40;5.10;;;17.80;74.60;;;;;;5063038;28;20468;-87
2021/10/02 08:31:49;;;;;;;8.52;5.18;;;17.80;74.70;;;;;;5029032;28;20037;-89
2021/10/02 08:34:15;;;;;;;5.88;5.57;;;17.80;74.80;;;;;;5015513;28;20044;-89
2021/10/02 08:36:41;;;;;;;6.25;5.95;;;17.70;74.80;;;;;;5030642;28;20030;-87
2021/10/02 08:39:07;;;;;;;6.78;6.47;;;17.80;74.90;;;;;;5030941;28;20048;-83
2021/10/02 08:41:33;;;;;;;6.30;6.00;;;17.70;75.00;;;;;;5029909;28;20033;-84
2021/10/02 08:44:00;;;;;;;7.25;6.75;;;17.80;75.10;;;;;;5047237;28;20041;-84
2021/10/02 08:46:26;;;;;;;6.68;6.38;;;17.80;75.20;;;;;;5029273;28;20049;-85
2021/10/02 08:49:11;;;;;;;6.90;6.45;;;17.70;75.20;;;;;;5046452;28;20022;-85
2021/10/02 08:51:38;;;;;;;6.45;6.15;;;17.70;75.20;;;;;;5043110;28;20040;-86
2021/10/02 08:54:04;;;;;;;6.13;5.80;;;17.70;75.20;;;;;;5031300;28;20050;-87
2021/10/02 08:56:32;;;;;;;5.63;5.32;;;17.70;75.10;;;;;;5030350;28;20033;-86
2021/10/02 08:59:00;;;;;;;5.90;5.60;;;17.80;75.10;;;;;;5031062;28;20049;-89
2021/10/02 09:01:26;;;;;;;6.07;5.78;;;17.80;75.00;;;;;;5044126;28;20049;-78
2021/10/02 09:03:52;;;;;;;5.40;5.20;;;17.90;74.90;;;;;;5029329;28;20025;-87
2021/10/02 09:06:19;;;;;;;5.10;4.90;;;17.90;74.90;;;;;;5051254;28;20395;-88
2021/10/02 09:08:45;;;;;;;5.10;4.88;;;17.90;75.10;;;;;;5022200;28;20029;-81
2021/10/02 09:11:11;;;;;;;4.93;4.70;;;17.90;74.80;;;;;;5031158;28;20361;-85
2021/10/02 09:13:37;;;;;;;5.75;5.45;;;17.90;74.80;;;;;;5032211;28;20029;-83
2021/10/02 09:16:03;;;;;;;5.38;5.15;;;17.90;74.80;;;;;;5063469;28;20034;-85
2021/10/02 09:18:30;;;;;;;6.18;5.63;;;17.90;74.80;;;;;;5060247;28;20025;-84
2021/10/02 09:21:01;;;;;;;5.75;5.47;;;17.90;74.70;;;;;;5027017;28;20041;-88
2021/10/02 09:23:27;;;;;;;5.35;5.07;;;17.90;74.70;;;;;;5032216;28;20025;-89
2021/10/02 09:25:53;;;;;;;4.60;4.40;;;17.90;74.60;;;;;;5029902;28;20412;-86
2021/10/02 09:28:19;;;;;;;4.75;4.55;;;17.90;74.60;;;;;;5061913;28;20034;-84
2021/10/02 09:30:46;;;;;;;4.68;4.47;;;17.90;74.60;;;;;;5047843;28;20040;-85
2021/10/02 09:33:20;;;;;;;4.63;4.43;;;17.90;74.80;;;;;;5031611;28;20026;-86
2021/10/02 09:35:47;;;;;;;5.25;5.05;;;17.90;74.80;;;;;;5062971;28;20037;-86
2021/10/02 09:38:18;;;;;;;5.35;5.13;;;17.80;74.80;;;;;;5046518;28;20028;-85
2021/10/02 09:40:58;;;;;;;4.75;4.55;;;17.80;74.70;;;;;;5058881;28;20569;-87
2021/10/02 09:43:25;;;;;;;8.52;5.15;;;17.80;74.80;;;;;;5031542;28;20049;-87
2021/10/02 09:45:52;;;;;;;4.88;4.57;;;17.80;74.70;;;;;;5029919;28;20045;-88
2021/10/02 09:48:25;;;;;;;5.90;5.60;;;17.80;74.80;;;;;;5028436;28;20464;-86
2021/10/02 09:50:51;;;;;;;5.93;5.43;;;17.80;74.80;;;;;;5039056;28;20407;-85
2021/10/02 09:53:18;;;;;;;5.40;5.18;;;17.80;74.80;;;;;;5038265;28;20025;-83
2021/10/02 09:55:46;;;;;;;4.78;4.57;;;17.80;74.70;;;;;;5060464;28;20036;-84
2021/10/02 09:58:17;;;;;;;6.03;5.72;;;17.80;74.70;;;;;;5061793;28;20372;-86
2021/10/02 10:00:47;;;;;;;5.72;5.45;;;17.80;74.70;;;;;;5028693;28;20052;-84
2021/10/02 10:03:15;;;;;;;4.82;4.63;;;17.80;74.80;;;;;;5029875;28;20490;-85
2021/10/02 10:05:42;;;;;;;5.72;5.45;;;17.80;74.70;;;;;;5062278;28;20041;-87
2021/10/02 10:08:11;;;;;;;5.05;4.85;;;17.80;74.70;;;;;;5061373;28;20037;-88
2021/10/02 10:10:41;;;;;;;5.30;5.00;;;17.80;74.70;;;;;;5030687;28;20515;-85
2021/10/02 10:13:15;;;;;;;6.25;5.95;;;17.80;74.70;;;;;;5030490;28;20037;-87
2021/10/02 10:15:46;;;;;;;5.97;5.68;;;17.80;74.80;;;;;;5058908;28;20480;-87
2021/10/02 10:18:14;;;;;;;6.00;5.70;;;17.80;74.80;;;;;;5029976;28;20025;-87
2021/10/02 10:20:52;;;;;;;5.10;4.90;;;17.80;74.80;;;;;;5030759;28;20044;-86
2021/10/02 10:23:41;;;;;;;6.00;5.70;;;17.70;74.80;;;;;;5033726;28;20033;-85
2021/10/02 10:26:12;;;;;;;6.53;6.13;;;17.70;74.80;;;;;;5032081;28;20037;-87
2021/10/02 10:28:40;;;;;;;6.28;5.88;;;17.80;74.80;;;;;;5033499;28;20022;-87
2021/10/02 10:31:25;;;;;;;5.88;5.57;;;17.80;74.70;;;;;;5033064;28;20082;-88
2021/10/02 10:33:57;;;;;;;5.93;5.63;;;17.80;74.70;;;;;;5019979;28;20030;-84
2021/10/02 10:36:25;;;;;;;7.13;6.10;;;17.80;74.70;;;;;;5017133;28;20056;-86
2021/10/02 10:38:51;;;;;;;6.50;6.20;;;17.80;74.70;;;;;;5030322;28;20021;-86
2021/10/02 10:41:19;;;;;;;6.07;5.78;;;17.80;74.70;;;;;;5033210;28;20415;-84
2021/10/02 10:43:45;;;;;;;6.28;5.97;;;17.80;74.70;;;;;;5049896;28;20511;-84
2021/10/02 10:46:13;;;;;;;6.40;6.10;;;17.80;74.70;;;;;;5057114;28;20054;-85
2021/10/02 10:48:41;;;;;;;6.20;5.90;;;17.80;74.70;;;;;;5066041;28;20018;-85
2021/10/02 10:51:09;;;;;;;6.00;5.70;;;17.80;74.80;;;;;;5049955;28;20396;-86
2021/10/02 10:53:42;;;;;;;6.63;6.22;;;17.80;74.80;;;;;;5017500;28;20388;-86
2021/10/02 10:56:10;;;;;;;6.57;6.18;;;17.90;74.80;;;;;;5033591;28;20045;-86
2021/10/02 10:58:36;;;;;;;6.05;5.75;;;17.90;74.80;;;;;;5049215;28;20093;-86
2021/10/02 11:01:04;;;;;;;6.55;6.25;;;17.90;74.80;;;;;;5065847;28;20048;-85
2021/10/02 11:03:48;;;;;;;6.18;5.88;;;17.90;74.80;;;;;;5064044;28;20036;-87
2021/10/02 11:06:18;;;;;;;6.07;5.78;;;18.00;74.80;;;;;;5030515;28;20049;-86
2021/10/02 11:09:03;;;;;;;6.82;6.53;;;18.00;74.80;;;;;;5032190;28;20053;-85
2021/10/02 11:11:50;;;;;;;6.55;6.25;;;18.00;74.70;;;;;;5065974;28;20105;-86
2021/10/02 11:14:43;;;;;;;13.35;5.30;;;18.00;74.70;;;;;;5023890;28;20049;-88
2021/10/02 11:17:09;;;;;;;5.40;5.18;;;18.10;74.70;;;;;;4972362;28;20038;-88
2021/10/02 11:19:37;;;;;;;5.25;5.00;;;18.10;74.60;;;;;;4952415;28;20038;-88
2021/10/02 11:22:03;;;;;;;5.05;4.75;;;18.20;74.60;;;;;;4966531;28;20062;-88
2021/10/02 11:24:45;;;;;;;4.88;4.68;;;18.20;74.60;;;;;;4972528;28;20038;-88
2021/10/02 11:27:20;;;;;;;5.63;5.38;;;18.20;74.60;;;;;;4958469;28;20624;-87
2021/10/02 11:29:47;;;;;;;5.72;5.43;;;18.20;74.40;;;;;;4971548;28;20066;-87
2021/10/02 11:32:34;;;;;;;6.10;5.53;;;18.20;74.40;;;;;;4947667;28;20035;-88
2021/10/02 11:35:20;;;;;;;4.20;4.00;;;18.30;74.50;;;;;;4976814;28;20054;-87
2021/10/02 11:37:57;;;;;;;5.57;5.28;;;18.20;74.40;;;;;;4972436;28;20043;-88
2021/10/02 11:40:32;;;;;;;5.05;4.75;;;18.30;74.40;;;;;;4949993;28;20142;-88
2021/10/02 11:43:13;;;;;;;4.85;4.65;;;18.30;74.40;;;;;;4972314;28;20038;-87
2021/10/02 11:45:58;;;;;;;5.82;5.53;;;18.30;74.40;;;;;;4969032;28;20050;-87
2021/10/02 11:48:36;;;;;;;4.80;4.50;;;18.30;74.50;;;;;;4953805;28;20042;-82
2021/10/02 11:51:25;;;;;;;5.90;5.38;;;18.30;74.50;;;;;;4971643;28;20042;-86
2021/10/02 11:53:56;;;;;;;10.85;4.88;;;18.30;74.40;;;;;;4983330;28;20393;-85
2021/10/02 11:56:26;;;;;;;;;;;18.30;74.40;;;;;;5032743;28;20048;-88
2021/10/02 11:58:54;;;;;;;4.30;4.10;;;18.30;74.40;;;;;;5033487;28;19909;-86
2021/10/02 12:01:30;;;;;;;4.35;4.15;;;18.30;74.40;;;;;;5032776;28;20041;-86
2021/10/02 12:04:09;;;;;;;5.18;4.80;;;18.40;74.40;;;;;;5033051;28;20025;-87
2021/10/02 12:06:38;;;;;;;9.32;4.70;;;18.40;74.40;;;;;;5033151;28;20041;-88
2021/10/02 12:09:08;;;;;;;4.90;4.60;;;18.40;74.40;;;;;;5033382;28;20032;-88
2021/10/02 12:11:40;;;;;;;4.88;4.68;;;18.40;74.40;;;;;;5064286;28;20033;-87
2021/10/02 12:14:06;;;;;;;4.78;4.57;;;18.40;74.40;;;;;;5032779;28;20025;-87
2021/10/02 12:16:33;;;;;;;4.85;4.65;;;18.40;74.50;;;;;;5031959;28;20036;-87
2021/10/02 12:19:01;;;;;;;5.72;5.43;;;18.40;74.50;;;;;;5047436;28;20492;-86
2021/10/02 12:21:34;;;;;;;4.55;4.35;;;18.40;74.60;;;;;;5032743;28;20041;-88
2021/10/02 12:24:10;;;;;;;5.10;4.80;;;18.40;74.70;;;;;;5031204;28;20056;-87
2021/10/02 12:26:46;;;;;;;9.18;5.03;;;18.40;74.70;;;;;;5064419;28;20044;-87
2021/10/02 12:29:13;;;;;;;5.20;5.00;;;18.40;74.70;;;;;;5032446;28;20021;-87
2021/10/02 12:31:45;;;;;;;5.45;5.20;;;18.40;74.70;;;;;;5032242;28;20045;-87
2021/10/02 12:34:22;;;;;;;5.78;5.47;;;18.40;74.70;;;;;;5032501;28;20026;-86
2021/10/02 12:36:56;;;;;;;4.97;4.78;;;18.40;74.70;;;;;;5016078;28;20025;-88
2021/10/02 12:39:28;;;;;;;4.93;4.72;;;18.40;74.70;;;;;;5022381;28;20041;-87
2021/10/02 12:41:54;;;;;;;5.07;4.78;;;18.40;74.80;;;;;;5030699;28;20045;-87
2021/10/02 12:44:34;;;;;;;5.03;4.82;;;18.40;74.80;;;;;;5030835;28;20048;-87
2021/10/02 12:47:01;;;;;;;6.50;6.07;;;18.40;74.80;;;;;;5029712;28;20052;-88
2021/10/02 12:49:27;;;;;;;4.70;4.50;;;18.50;74.80;;;;;;5030983;28;20040;-87
2021/10/02 12:51:54;;;;;;;4.70;4.50;;;18.50;74.80;;;;;;5031698;28;20064;-88
2021/10/02 12:54:26;;;;;;;4.88;4.68;;;18.50;74.80;;;;;;5014690;28;20022;-88
2021/10/02 12:56:55;;;;;;;5.28;5.07;;;18.50;74.80;;;;;;5032071;28;20037;-88
2021/10/02 12:59:21;;;;;;;5.30;5.10;;;18.50;74.80;;;;;;5032244;28;20077;-88
2021/10/02 13:01:49;;;;;;;4.95;4.75;;;18.60;75.60;;;;;;5032038;28;20041;-87
2021/10/02 13:04:18;;;;;;;5.25;4.95;;;18.60;74.70;;;;;;5014142;28;20029;-88
2021/10/02 13:06:51;;;;;;;6.60;6.30;;;18.70;74.70;;;;;;5014886;28;20044;-86
2021/10/02 13:09:18;;;;;;;5.32;5.13;;;18.70;74.60;;;;;;5029470;28;20499;-88
2021/10/02 13:11:46;;;;;;;4.60;4.40;;;18.70;74.60;;;;;;5030956;28;20037;-89
2021/10/02 13:14:34;;;;;;;5.50;5.25;;;18.70;74.60;;;;;;5014546;28;20041;-88
2021/10/02 13:17:09;;;;;;;4.72;4.53;;;18.80;74.80;;;;;;5014502;28;20033;-89
2021/10/02 13:19:36;;;;;;;5.00;4.80;;;18.80;74.80;;;;;;5029582;28;20025;-85
2021/10/02 13:22:28;;;;;;;5.38;5.07;;;18.80;74.70;;;;;;5031111;28;20029;-89
2021/10/02 13:25:28;;;;;;;5.03;4.80;;;18.80;74.80;;;;;;5055399;28;20037;-89
2021/10/02 13:27:55;;;;;;;5.13;4.93;;;18.90;74.80;;;;;;5021201;28;20547;-90
2021/10/02 13:30:29;;;;;;;5.07;4.88;;;18.90;74.70;;;;;;5029191;28;20046;-88
2021/10/02 13:33:02;;;;;;;4.88;4.68;;;18.90;74.70;;;;;;5030942;28;20044;-88
2021/10/02 13:35:30;;;;;;;5.57;5.28;;;18.90;74.80;;;;;;5008632;28;20033;-88
2021/10/02 13:37:56;;;;;;;4.57;4.38;;;18.90;74.70;;;;;;5046243;28;20034;-89
2021/10/02 13:40:34;;;;;;;4.43;4.22;;;18.90;74.70;;;;;;5031025;28;20040;-88
2021/10/02 13:43:00;;;;;;;5.15;4.95;;;18.90;74.90;;;;;;5025329;28;20049;-89
2021/10/02 13:45:32;;;;;;;5.00;4.80;;;18.90;74.90;;;;;;5030145;28;20041;-89
2021/10/02 13:48:02;;;;;;;5.05;4.85;;;18.90;75.00;;;;;;5029845;28;20036;-90
2021/10/02 13:50:28;;;;;;;4.57;4.38;;;18.80;75.10;;;;;;5030360;28;20408;-86